Wayland, Kentucky
Current Conditions -  °F | °C
As of 2:35 AM on Wednesday 22 Oct 2014 (Local Time) from KPBX Reporting Station
Overcast Overcast  
Wind Chill: 44°   Ceiling: 3900
Heat Index: 44°   Visibility: 10mi
Dew Point: 41°   Wind: 3mph
Humidity: 89%   Direction: 340°NNW
Pressure: 30.11"   Gusts: NA
Location:  37.45°N, 82.81°W
Report Text: KPBX 220635Z AUTO 34003KT 10SM SCT013 OVC039 07/05 A3011 RMK AO2 T00650048
Loading
Personal Weather Stations






























Interactive Weather Map
Tropical Storm Tracking
New forecast layout! Learn more

10-Day Weather Forecast

Advertisements
Track Severe Weather on mobile